الصفحة الرئيسية
METAR-TAF:

METAR-TAF

مطار :

طبس, إيران

دائرة عرض: 33-36N, خط طول: 056-55E, ارتفاع: 710 متر

مراقبة الطقس الحالي

تاريخ ووقت الإصدار 1ساعة و 20 دقيقة قبل الساعة 00:00UTC
رياح هادئة
درجة الحرارة 25°درجة مئوية
الرطوبة 28%
ضغط 1009 hPa

METAR: OIMT 270000Z AUTO 00000KT //// // ////// 25/05 Q1009

زمن: 05:50 (01:20 UTC)


TAF: مفقودة

أرصاد الطقس والتوقعات من أكثر من 4000 مطار (تقارير الطقس للمطار METAR والتنبؤ بالطقس بالمطارTAF).

المحطات المتاحة هي النقط الصفراء والحمراء على الخريطة.

حرك المؤشر فوق النقطة لمعرفة اسم المحطة.

ثم انقر لمعرفة أرصاد وتوقعات الطقس.

لتغيير الخارطة: اضغط على الأزرار الخضراء مع رمز الصليب الأسود للتكبير. على الزر الأخضر مع شرطة للتصغير، أو على الأسهم الخضراء للخرائط المجاورة.


METAR-TAF: